createdAt,value
2022-09-12T00:00:51.159Z,98.70
2022-09-12T00:03:17.640Z,97.73
2022-09-12T00:05:46.241Z,97.59
2022-09-12T00:08:13.693Z,98.28
2022-09-12T00:10:41.566Z,98.91
2022-09-12T00:13:08.707Z,99.48
2022-09-12T00:15:42.896Z,100.00
2022-09-12T00:18:13.361Z,100.00
2022-09-12T00:20:45.665Z,100.00
2022-09-12T00:23:12.171Z,99.30
2022-09-12T00:25:44.127Z,99.33
2022-09-12T00:28:11.739Z,98.33
2022-09-12T00:30:45.820Z,98.12
2022-09-12T00:33:12.611Z,98.83
2022-09-12T00:35:49.910Z,98.65
2022-09-12T00:38:17.383Z,98.88
2022-09-12T00:40:44.729Z,99.61
2022-09-12T00:43:15.140Z,100.00
2022-09-12T00:45:42.635Z,100.00
2022-09-12T00:48:22.290Z,100.00
2022-09-12T00:50:49.910Z,100.00
2022-09-12T00:53:16.759Z,100.00
2022-09-12T00:55:45.774Z,100.00
2022-09-12T00:58:23.225Z,100.00
2022-09-12T01:00:49.925Z,100.00
2022-09-12T01:03:19.462Z,100.00
2022-09-12T01:06:04.840Z,100.00
2022-09-12T01:08:33.159Z,100.00
2022-09-12T01:10:59.851Z,100.00
2022-09-12T01:13:26.889Z,100.00
2022-09-12T01:15:54.286Z,100.00
2022-09-12T01:19:09.123Z,100.00
2022-09-12T01:22:10.809Z,100.00
2022-09-12T01:24:53.556Z,100.00
2022-09-12T01:27:48.100Z,100.00
2022-09-12T01:30:18.188Z,100.00
2022-09-12T01:32:55.346Z,100.00
2022-09-12T01:35:42.603Z,100.00
2022-09-12T01:38:12.514Z,100.00
2022-09-12T01:40:51.934Z,100.00
2022-09-12T01:43:28.771Z,100.00
2022-09-12T01:46:02.579Z,100.00
2022-09-12T01:48:39.017Z,99.45
2022-09-12T01:51:31.567Z,99.31
2022-09-12T01:54:05.756Z,99.44
2022-09-12T01:56:36.041Z,99.01
2022-09-12T01:59:13.568Z,98.36
2022-09-12T02:01:48.067Z,97.81
2022-09-12T02:04:23.192Z,98.71
2022-09-12T02:06:55.306Z,98.88
2022-09-12T02:09:40.154Z,98.13
2022-09-12T02:12:11.441Z,98.84
2022-09-12T02:14:46.039Z,98.50
2022-09-12T02:17:16.606Z,98.48
2022-09-12T02:19:47.341Z,98.03
2022-09-12T02:22:17.963Z,98.07
2022-09-12T02:24:48.091Z,97.43
2022-09-12T02:27:19.752Z,98.60
2022-09-12T02:29:46.488Z,98.75
2022-09-12T02:32:21.079Z,100.00
2022-09-12T02:34:49.490Z,99.85
2022-09-12T02:37:33.525Z,99.05
2022-09-12T02:40:00.850Z,97.86
2022-09-12T02:42:27.359Z,98.72
2022-09-12T02:44:56.596Z,98.35
2022-09-12T02:47:36.546Z,98.97
2022-09-12T02:50:05.421Z,98.60
2022-09-12T02:52:32.235Z,97.99
2022-09-12T02:54:59.651Z,98.89
2022-09-12T02:57:26.363Z,98.18
2022-09-12T02:59:57.361Z,97.96
2022-09-12T03:02:51.637Z,99.16
2022-09-12T03:05:27.036Z,98.78
2022-09-12T03:08:05.523Z,100.00
2022-09-12T03:10:36.758Z,100.00
2022-09-12T03:13:25.944Z,100.00
2022-09-12T03:16:01.517Z,100.00
2022-09-12T03:18:51.859Z,100.00
2022-09-12T03:21:30.322Z,100.00
2022-09-12T03:24:12.523Z,100.00
2022-09-12T03:26:49.209Z,100.00
2022-09-12T03:29:18.491Z,100.00
2022-09-12T03:32:03.289Z,99.60
2022-09-12T03:34:29.834Z,99.05
2022-09-12T03:36:57.007Z,99.88
2022-09-12T03:39:24.600Z,100.00
2022-09-12T03:41:51.291Z,99.50
2022-09-12T03:44:18.279Z,98.99
2022-09-12T03:46:45.044Z,99.12
2022-09-12T03:49:12.043Z,99.67
2022-09-12T03:51:39.331Z,99.13
2022-09-12T03:54:06.201Z,98.44
2022-09-12T03:56:32.837Z,99.07
2022-09-12T03:58:59.358Z,99.75
2022-09-12T04:01:25.779Z,98.43
2022-09-12T04:03:52.594Z,99.32
2022-09-12T04:06:22.457Z,99.41
2022-09-12T04:08:51.943Z,99.11
2022-09-12T04:11:20.466Z,98.91
2022-09-12T04:13:47.721Z,99.46
2022-09-12T04:16:15.689Z,100.00
2022-09-12T04:18:42.471Z,100.00
2022-09-12T04:21:12.604Z,100.00
2022-09-12T04:23:39.147Z,100.00
2022-09-12T04:26:09.208Z,100.00
2022-09-12T04:28:37.683Z,100.00
2022-09-12T04:31:07.636Z,100.00
2022-09-12T04:33:35.394Z,99.31
2022-09-12T04:36:10.746Z,99.27
2022-09-12T04:38:37.751Z,99.99
2022-09-12T04:41:15.548Z,99.97
2022-09-12T04:43:43.191Z,99.60
2022-09-12T04:46:11.466Z,100.00
2022-09-12T04:48:38.555Z,100.00
2022-09-12T04:51:14.350Z,100.00
2022-09-12T04:53:41.442Z,100.00
2022-09-12T04:56:09.967Z,100.00
2022-09-12T04:58:37.261Z,100.00
2022-09-12T05:01:14.991Z,100.00
2022-09-12T05:03:45.420Z,100.00
2022-09-12T05:06:18.238Z,100.00
2022-09-12T05:08:45.115Z,100.00
2022-09-12T05:11:14.769Z,100.00
2022-09-12T05:13:41.664Z,100.00
2022-09-12T05:16:11.371Z,100.00
2022-09-12T05:18:38.706Z,100.00
2022-09-12T05:21:09.330Z,100.00
2022-09-12T05:23:36.378Z,100.00
2022-09-12T05:26:05.382Z,100.00
2022-09-12T05:28:37.443Z,100.00
2022-09-12T05:31:15.262Z,100.00
2022-09-12T05:33:43.547Z,100.00
2022-09-12T05:36:13.251Z,100.00
2022-09-12T05:38:39.911Z,99.78
2022-09-12T05:41:16.930Z,99.26
2022-09-12T05:43:45.959Z,99.28
2022-09-12T05:46:17.230Z,99.01
2022-09-12T05:48:45.423Z,98.41
2022-09-12T05:51:21.025Z,97.62
2022-09-12T05:53:50.466Z,98.35
2022-09-12T05:56:25.530Z,99.14
2022-09-12T05:59:01.838Z,99.12
2022-09-12T06:01:30.966Z,99.89
2022-09-12T06:04:02.415Z,99.69
2022-09-12T06:06:30.272Z,99.50
2022-09-12T06:08:59.099Z,98.58
2022-09-12T06:11:28.313Z,97.04
2022-09-12T06:13:57.127Z,98.87
2022-09-12T06:16:28.922Z,98.13
2022-09-12T06:18:57.601Z,98.12
2022-09-12T06:21:26.547Z,97.65
2022-09-12T06:23:56.089Z,97.84
2022-09-12T06:26:23.572Z,98.01
2022-09-12T06:28:50.551Z,96.09
2022-09-12T06:31:19.000Z,96.62
2022-09-12T06:33:48.155Z,96.23
2022-09-12T06:36:21.296Z,96.16
2022-09-12T06:38:48.821Z,96.69
2022-09-12T06:41:15.863Z,97.43
2022-09-12T06:43:42.790Z,97.44
2022-09-12T06:46:10.617Z,98.75
2022-09-12T06:48:41.540Z,98.03
2022-09-12T06:51:14.081Z,97.33
2022-09-12T06:53:41.251Z,98.38
2022-09-12T06:56:12.350Z,97.42
2022-09-12T06:58:39.752Z,97.70
2022-09-12T07:01:15.497Z,97.74
2022-09-12T07:03:43.133Z,97.10
2022-09-12T07:06:12.095Z,97.04
2022-09-12T07:08:39.562Z,97.34
2022-09-12T07:11:11.118Z,97.48
2022-09-12T07:13:38.721Z,96.73
2022-09-12T07:16:06.125Z,97.03
2022-09-12T07:18:38.030Z,97.03
2022-09-12T07:21:06.717Z,96.59
2022-09-12T07:23:33.258Z,97.69
2022-09-12T07:26:00.938Z,98.10
2022-09-12T07:28:30.219Z,96.51
2022-09-12T07:30:57.311Z,96.85
2022-09-12T07:33:27.666Z,96.84
2022-09-12T07:35:54.470Z,96.14
2022-09-12T07:38:21.715Z,95.05
2022-09-12T07:40:48.351Z,93.88
2022-09-12T07:43:14.798Z,94.63
2022-09-12T07:45:42.369Z,95.28
2022-09-12T07:48:09.407Z,94.36
2022-09-12T07:50:36.782Z,93.86
2022-09-12T07:53:04.132Z,93.64
2022-09-12T07:55:31.161Z,93.75
2022-09-12T07:57:57.845Z,92.98
2022-09-12T08:00:24.637Z,93.16
2022-09-12T08:02:52.443Z,91.80
2022-09-12T08:05:20.652Z,92.74
2022-09-12T08:07:47.538Z,92.63
2022-09-12T08:10:13.970Z,93.11
2022-09-12T08:12:40.454Z,93.82
2022-09-12T08:15:07.253Z,92.74
2022-09-12T08:17:33.658Z,92.17
2022-09-12T08:20:00.055Z,94.01
2022-09-12T08:22:26.460Z,92.94
2022-09-12T08:24:53.582Z,92.52
2022-09-12T08:27:19.965Z,93.13
2022-09-12T08:29:46.362Z,93.74
2022-09-12T08:32:12.797Z,93.06
2022-09-12T08:34:39.296Z,92.76
2022-09-12T08:37:05.824Z,90.42
2022-09-12T08:39:33.091Z,92.13
2022-09-12T08:42:05.026Z,91.46
2022-09-12T08:44:51.014Z,87.23
2022-09-12T08:47:36.475Z,88.24
2022-09-12T08:50:12.094Z,87.36
2022-09-12T08:52:58.485Z,85.87
2022-09-12T08:55:36.146Z,87.72
2022-09-12T08:58:20.206Z,89.00
2022-09-12T09:00:55.830Z,86.30
2022-09-12T09:03:47.015Z,87.79
2022-09-12T09:06:38.440Z,87.25
2022-09-12T09:09:11.938Z,87.27
2022-09-12T09:11:54.525Z,87.24
2022-09-12T09:14:51.370Z,83.16
2022-09-12T09:17:41.011Z,84.10
2022-09-12T09:20:41.228Z,83.18
2022-09-12T09:23:31.864Z,84.65
2022-09-12T09:26:04.928Z,84.00
2022-09-12T09:28:39.749Z,83.84
2022-09-12T09:31:15.080Z,84.44
2022-09-12T09:33:42.024Z,83.16
2022-09-12T09:36:23.909Z,79.35
2022-09-12T09:39:00.774Z,81.06
2022-09-12T09:41:34.100Z,79.55
2022-09-12T09:44:01.067Z,82.69
2022-09-12T09:46:28.320Z,82.74
2022-09-12T09:48:58.627Z,77.23
2022-09-12T09:51:33.925Z,76.26
2022-09-12T09:54:09.431Z,79.06
2022-09-12T09:56:40.827Z,78.57
2022-09-12T09:59:16.130Z,76.19
2022-09-12T10:01:51.483Z,76.97
2022-09-12T10:04:32.053Z,75.78
2022-09-12T10:07:01.140Z,75.29
2022-09-12T10:09:29.442Z,74.47
2022-09-12T10:11:56.977Z,71.54
2022-09-12T10:14:36.827Z,73.27
2022-09-12T10:17:28.691Z,72.02
2022-09-12T10:20:19.950Z,72.16
2022-09-12T10:22:47.617Z,71.78
2022-09-12T10:25:18.643Z,70.81
2022-09-12T10:27:52.131Z,70.77
2022-09-12T10:30:21.623Z,68.97
2022-09-12T10:32:51.505Z,65.94
2022-09-12T10:35:42.342Z,68.05
2022-09-12T10:38:18.150Z,67.28
2022-09-12T10:40:44.809Z,66.26
2022-09-12T10:43:25.987Z,66.69
2022-09-12T10:45:57.434Z,65.58
2022-09-12T10:48:33.481Z,67.31
2022-09-12T10:51:02.029Z,65.06
2022-09-12T10:53:40.894Z,64.33
2022-09-12T10:56:10.814Z,60.34
2022-09-12T10:58:46.396Z,57.86
2022-09-12T11:01:34.291Z,61.72
2022-09-12T11:04:06.778Z,60.13
2022-09-12T11:07:15.103Z,57.60
2022-09-12T11:10:00.262Z,59.68
2022-09-12T11:12:57.946Z,59.07
2022-09-12T11:15:39.031Z,61.33
2022-09-12T11:18:11.248Z,53.77
2022-09-12T11:21:12.743Z,53.79
2022-09-12T11:24:03.196Z,56.65
2022-09-12T11:26:50.833Z,56.76
2022-09-12T11:29:41.886Z,55.10
2022-09-12T11:32:26.550Z,52.17
2022-09-12T11:35:21.019Z,53.62
2022-09-12T11:38:07.529Z,51.00
2022-09-12T11:40:49.152Z,54.00
2022-09-12T11:43:39.756Z,51.04
2022-09-12T11:46:39.576Z,49.32
2022-09-12T11:49:15.725Z,49.10
2022-09-12T11:51:50.995Z,53.17
2022-09-12T11:54:33.859Z,47.88
2022-09-12T11:57:11.602Z,48.73
2022-09-12T11:59:52.698Z,45.80
2022-09-12T12:02:27.985Z,46.99
2022-09-12T12:05:17.734Z,46.75
2022-09-12T12:07:51.210Z,47.43
2022-09-12T12:10:48.777Z,41.01
2022-09-12T12:13:15.115Z,41.20
2022-09-12T12:15:48.534Z,43.46
2022-09-12T12:18:23.116Z,42.17
2022-09-12T12:20:50.741Z,40.50
2022-09-12T12:23:28.630Z,40.85
2022-09-12T12:26:00.706Z,44.42
2022-09-12T12:28:42.440Z,41.41
2022-09-12T12:31:10.773Z,42.68
2022-09-12T12:33:37.287Z,42.14
2022-09-12T12:36:09.215Z,45.04
2022-09-12T12:38:38.248Z,46.00
2022-09-12T12:41:16.825Z,46.07
2022-09-12T12:43:53.671Z,45.38
2022-09-12T12:46:22.629Z,43.63
2022-09-12T12:48:54.931Z,44.78
2022-09-12T12:51:33.098Z,46.19
2022-09-12T12:54:02.991Z,42.91
2022-09-12T12:56:39.164Z,41.72
2022-09-12T12:59:17.641Z,42.73
2022-09-12T13:01:51.511Z,43.73
2022-09-12T13:04:24.340Z,42.82
2022-09-12T13:06:59.660Z,43.44
2022-09-12T13:09:32.067Z,45.97
2022-09-12T13:11:58.602Z,46.37
2022-09-12T13:14:43.438Z,45.59
2022-09-12T13:17:22.703Z,47.22
2022-09-12T13:19:56.705Z,46.68
2022-09-12T13:22:48.471Z,45.62
2022-09-12T13:25:21.541Z,45.34
2022-09-12T13:28:01.846Z,46.11
2022-09-12T13:30:43.297Z,47.21
2022-09-12T13:33:23.856Z,50.23
2022-09-12T13:36:05.062Z,46.56
2022-09-12T13:39:14.120Z,46.92
2022-09-12T13:42:21.579Z,46.11
2022-09-12T13:44:52.180Z,48.04
2022-09-12T13:47:28.063Z,47.16
2022-09-12T13:49:54.950Z,48.06
2022-09-12T13:52:28.359Z,48.71
2022-09-12T13:54:58.337Z,49.74
2022-09-12T13:57:30.649Z,46.74
2022-09-12T13:59:58.467Z,50.15
2022-09-12T14:02:28.771Z,49.85
2022-09-12T14:05:09.066Z,49.33
2022-09-12T14:07:56.273Z,47.29
2022-09-12T14:10:33.168Z,48.58
2022-09-12T14:13:05.565Z,46.87
2022-09-12T14:15:36.202Z,48.77
2022-09-12T14:18:05.881Z,48.09
2022-09-12T14:20:36.832Z,49.35
2022-09-12T14:23:18.095Z,50.88
2022-09-12T14:25:47.686Z,50.43
2022-09-12T14:28:22.797Z,49.33
2022-09-12T14:31:21.397Z,50.39
2022-09-12T14:33:53.754Z,51.75
2022-09-12T14:36:24.924Z,50.37
2022-09-12T14:39:00.058Z,49.42
2022-09-12T14:41:32.435Z,49.78
2022-09-12T14:44:01.529Z,51.64
2022-09-12T14:46:31.935Z,50.58
2022-09-12T14:49:15.815Z,49.75
2022-09-12T14:51:51.660Z,50.21
2022-09-12T14:54:27.501Z,51.87
2022-09-12T14:57:02.664Z,52.54
2022-09-12T14:59:29.007Z,50.74
2022-09-12T15:02:13.493Z,51.50
2022-09-12T15:04:42.300Z,50.67
2022-09-12T15:07:33.848Z,51.40
2022-09-12T15:10:03.318Z,51.22
2022-09-12T15:12:29.808Z,49.44
2022-09-12T15:15:03.306Z,50.11
2022-09-12T15:17:29.715Z,49.81
2022-09-12T15:19:56.119Z,50.47
2022-09-12T15:22:24.447Z,52.80
2022-09-12T15:24:50.938Z,51.03
2022-09-12T15:27:17.374Z,50.58
2022-09-12T15:29:43.790Z,50.48
2022-09-12T15:32:22.490Z,50.37
2022-09-12T15:34:48.883Z,50.45
2022-09-12T15:37:15.768Z,53.09
2022-09-12T15:39:42.207Z,50.49
2022-09-12T15:42:11.618Z,50.18
2022-09-12T15:44:38.021Z,52.53
2022-09-12T15:47:04.926Z,51.61
2022-09-12T15:49:32.030Z,51.98
2022-09-12T15:51:59.600Z,52.49
2022-09-12T15:54:26.014Z,53.64
2022-09-12T15:56:52.423Z,54.50
2022-09-12T15:59:18.879Z,51.53
2022-09-12T16:01:45.416Z,52.59
2022-09-12T16:04:23.876Z,51.56
2022-09-12T16:06:51.415Z,52.39
2022-09-12T16:09:17.875Z,52.58
2022-09-12T16:11:47.392Z,54.07
2022-09-12T16:14:15.598Z,53.16
2022-09-12T16:16:43.522Z,53.90
2022-09-12T16:19:12.496Z,54.11
2022-09-12T16:21:39.008Z,51.45
2022-09-12T16:24:05.473Z,56.67
2022-09-12T16:26:31.958Z,53.38
2022-09-12T16:28:58.936Z,53.40
2022-09-12T16:31:26.746Z,53.89
2022-09-12T16:33:53.551Z,53.05
2022-09-12T16:36:21.748Z,55.17
2022-09-12T16:38:50.424Z,54.16
2022-09-12T16:41:18.879Z,55.68
2022-09-12T16:43:45.658Z,55.93
2022-09-12T16:46:15.928Z,55.47
2022-09-12T16:48:50.988Z,58.19
2022-09-12T16:51:23.760Z,59.62
2022-09-12T16:53:50.949Z,59.83
2022-09-12T16:56:18.449Z,59.11
2022-09-12T16:58:45.505Z,59.19
2022-09-12T17:01:18.023Z,63.15
2022-09-12T17:03:44.519Z,62.17
2022-09-12T17:06:13.889Z,63.10
2022-09-12T17:08:42.866Z,65.97
2022-09-12T17:11:14.977Z,66.73
2022-09-12T17:14:03.112Z,66.95
2022-09-12T17:16:29.324Z,68.93
2022-09-12T17:18:55.770Z,69.73
2022-09-12T17:21:22.627Z,71.59
2022-09-12T17:23:49.811Z,72.36
2022-09-12T17:26:16.909Z,72.46
2022-09-12T17:28:43.911Z,73.31
2022-09-12T17:31:12.796Z,72.58
2022-09-12T17:33:39.856Z,73.47
2022-09-12T17:36:11.144Z,73.80
2022-09-12T17:38:39.772Z,72.93
2022-09-12T17:41:17.990Z,74.13
2022-09-12T17:43:56.587Z,75.47
2022-09-12T17:46:25.231Z,76.18
2022-09-12T17:48:56.847Z,76.68
2022-09-12T17:51:25.821Z,77.07
2022-09-12T17:53:59.070Z,78.36
2022-09-12T17:56:27.981Z,78.94
2022-09-12T17:58:55.766Z,78.26
2022-09-12T18:01:40.907Z,78.66
2022-09-12T18:04:07.375Z,80.10
2022-09-12T18:06:34.025Z,80.18
2022-09-12T18:09:02.347Z,79.93
2022-09-12T18:11:29.443Z,80.99
2022-09-12T18:13:57.497Z,82.64
2022-09-12T18:16:23.912Z,81.49
2022-09-12T18:18:51.107Z,81.94
2022-09-12T18:21:18.445Z,83.21
2022-09-12T18:23:44.885Z,83.22
2022-09-12T18:26:13.318Z,83.96
2022-09-12T18:28:42.071Z,83.24
2022-09-12T18:31:21.121Z,84.96
2022-09-12T18:33:48.114Z,84.53
2022-09-12T18:36:16.373Z,85.40
2022-09-12T18:38:43.580Z,86.73
2022-09-12T18:41:12.989Z,86.06
2022-09-12T18:43:39.489Z,85.59
2022-09-12T18:46:08.566Z,85.51
2022-09-12T18:48:35.719Z,86.17
2022-09-12T18:51:08.001Z,86.89
2022-09-12T18:53:35.399Z,86.67
2022-09-12T18:56:08.599Z,86.44
2022-09-12T18:58:44.694Z,86.68
2022-09-12T19:01:17.084Z,87.88
2022-09-12T19:03:44.257Z,88.13
2022-09-12T19:06:17.810Z,88.33
2022-09-12T19:08:45.618Z,88.38
2022-09-12T19:11:12.659Z,88.46
2022-09-12T19:13:41.398Z,89.36
2022-09-12T19:16:10.244Z,89.47
2022-09-12T19:18:38.687Z,89.17
2022-09-12T19:21:06.645Z,89.74
2022-09-12T19:23:35.328Z,90.10
2022-09-12T19:26:05.610Z,89.68
2022-09-12T19:28:32.694Z,89.80
2022-09-12T19:30:59.494Z,89.47
2022-09-12T19:33:26.212Z,90.36
2022-09-12T19:35:52.722Z,89.63
2022-09-12T19:38:19.230Z,90.26
2022-09-12T19:40:55.752Z,90.28
2022-09-12T19:43:22.163Z,90.22
2022-09-12T19:45:48.560Z,90.11
2022-09-12T19:48:17.018Z,90.74
2022-09-12T19:50:43.574Z,90.76
2022-09-12T19:53:09.994Z,90.95
2022-09-12T19:55:36.771Z,90.27
2022-09-12T19:58:03.666Z,90.34
2022-09-12T20:00:30.089Z,90.21
2022-09-12T20:02:56.486Z,90.44
2022-09-12T20:05:22.865Z,90.45
2022-09-12T20:07:49.304Z,90.91
2022-09-12T20:10:15.932Z,90.67
2022-09-12T20:12:42.339Z,90.58
2022-09-12T20:15:09.234Z,90.91
2022-09-12T20:17:35.801Z,91.93
2022-09-12T20:20:02.280Z,92.41
2022-09-12T20:22:28.779Z,92.45
2022-09-12T20:24:55.219Z,92.45
2022-09-12T20:27:21.867Z,92.19
2022-09-12T20:29:48.266Z,92.83
2022-09-12T20:32:14.670Z,92.24
2022-09-12T20:34:41.083Z,92.57
2022-09-12T20:37:07.511Z,92.86
2022-09-12T20:39:34.450Z,93.05
2022-09-12T20:42:00.864Z,93.07
2022-09-12T20:44:27.598Z,93.03
2022-09-12T20:46:54.044Z,92.83
2022-09-12T20:49:20.879Z,93.24
2022-09-12T20:51:48.404Z,93.55
2022-09-12T20:54:15.059Z,93.60
2022-09-12T20:56:42.058Z,93.25
2022-09-12T20:59:11.710Z,93.42
2022-09-12T21:01:38.892Z,93.64
2022-09-12T21:04:05.437Z,93.48
2022-09-12T21:06:31.953Z,93.17
2022-09-12T21:08:59.761Z,93.66
2022-09-12T21:11:27.593Z,93.82
2022-09-12T21:13:54.852Z,93.53
2022-09-12T21:16:22.864Z,93.90
2022-09-12T21:18:55.241Z,93.62
2022-09-12T21:21:22.146Z,93.57
2022-09-12T21:23:50.626Z,93.75
2022-09-12T21:26:18.193Z,93.61
2022-09-12T21:28:44.631Z,93.54
2022-09-12T21:31:11.114Z,93.37
2022-09-12T21:33:37.589Z,92.95
2022-09-12T21:36:05.603Z,93.45
2022-09-12T21:38:32.753Z,93.07
2022-09-12T21:41:07.703Z,93.10
2022-09-12T21:43:34.719Z,93.70
2022-09-12T21:46:01.640Z,92.85
2022-09-12T21:48:28.718Z,93.14
2022-09-12T21:50:55.167Z,93.19
2022-09-12T21:53:21.993Z,93.89
2022-09-12T21:55:48.561Z,93.32
2022-09-12T21:58:15.034Z,93.86
2022-09-12T22:00:42.228Z,92.64
2022-09-12T22:03:10.447Z,92.92
2022-09-12T22:05:40.287Z,93.67
2022-09-12T22:08:08.303Z,93.56
2022-09-12T22:10:35.161Z,93.90
2022-09-12T22:13:02.396Z,93.76
2022-09-12T22:15:44.366Z,93.84
2022-09-12T22:18:11.402Z,93.08
2022-09-12T22:20:37.823Z,93.13
2022-09-12T22:23:25.033Z,93.20
2022-09-12T22:25:55.048Z,93.07
2022-09-12T22:28:21.565Z,93.67
2022-09-12T22:30:48.588Z,93.74
2022-09-12T22:33:15.489Z,94.09
2022-09-12T22:35:42.465Z,93.66
2022-09-12T22:38:09.193Z,94.01
2022-09-12T22:40:35.762Z,94.19
2022-09-12T22:43:02.319Z,94.22
2022-09-12T22:45:28.816Z,93.93
2022-09-12T22:47:59.170Z,94.33
2022-09-12T22:50:27.665Z,94.53
2022-09-12T22:52:54.150Z,94.10
2022-09-12T22:55:20.587Z,93.89
2022-09-12T22:57:47.048Z,93.70
2022-09-12T23:00:14.165Z,93.65
2022-09-12T23:02:40.619Z,94.08
2022-09-12T23:05:07.223Z,94.17
2022-09-12T23:07:33.707Z,94.47
2022-09-12T23:10:00.217Z,93.65
2022-09-12T23:12:26.661Z,94.11
2022-09-12T23:14:53.042Z,94.44
2022-09-12T23:17:19.431Z,94.85
2022-09-12T23:19:45.834Z,94.86
2022-09-12T23:22:12.341Z,95.19
2022-09-12T23:24:38.797Z,95.40
2022-09-12T23:27:05.987Z,94.69
2022-09-12T23:29:34.417Z,95.42
2022-09-12T23:32:02.274Z,94.28
2022-09-12T23:34:29.224Z,94.38
2022-09-12T23:36:56.277Z,93.96
2022-09-12T23:39:23.390Z,94.35
2022-09-12T23:41:50.377Z,94.14
2022-09-12T23:44:16.848Z,94.56
2022-09-12T23:46:43.314Z,94.48
2022-09-12T23:49:09.706Z,94.48
2022-09-12T23:51:36.173Z,94.26
2022-09-12T23:54:02.745Z,94.22
2022-09-12T23:56:29.159Z,94.08
2022-09-12T23:58:55.580Z,94.01
